createdAt,value
2022-08-17T17:44:19.888Z,27.06
2022-08-17T17:46:52.154Z,27.33
2022-08-17T17:49:19.740Z,27.31
2022-08-17T17:52:10.816Z,26.95
2022-08-17T17:55:03.506Z,27.02
2022-08-17T17:57:58.638Z,26.88
2022-08-17T18:00:31.031Z,26.96
2022-08-17T18:03:50.786Z,26.94
2022-08-17T18:06:18.649Z,26.64
2022-08-17T18:12:20.589Z,24.49
2022-08-17T18:15:07.595Z,23.84
2022-08-17T18:17:36.232Z,23.45
2022-08-17T18:20:06.915Z,23.03
2022-08-17T18:22:34.106Z,22.84
2022-08-17T18:25:00.809Z,22.65
2022-08-17T18:27:27.596Z,22.51
2022-08-17T18:29:55.991Z,22.36
2022-08-17T18:32:42.027Z,22.21
2022-08-17T18:35:08.590Z,22.02
2022-08-17T18:37:55.650Z,21.88
2022-08-17T18:40:36.614Z,21.76
2022-08-17T18:43:13.763Z,21.63
2022-08-17T18:45:49.309Z,21.53
2022-08-17T18:48:21.859Z,21.45
2022-08-17T18:50:51.474Z,21.38
2022-08-17T18:53:38.699Z,21.32
2022-08-17T18:56:23.382Z,21.23
2022-08-17T18:58:52.373Z,21.18
2022-08-17T19:01:21.394Z,21.07
2022-08-17T19:03:49.748Z,21.03
2022-08-17T19:06:30.530Z,20.98
2022-08-17T19:08:58.156Z,20.94
2022-08-17T19:11:32.915Z,20.88
2022-08-17T19:14:13.721Z,20.86
2022-08-17T19:16:40.366Z,20.85
2022-08-17T19:19:16.300Z,20.82
2022-08-17T19:21:58.965Z,20.75
2022-08-17T19:24:27.708Z,20.66
2022-08-17T19:27:11.408Z,20.57
2022-08-17T19:29:55.256Z,20.51
2022-08-17T19:32:25.886Z,20.49
2022-08-17T19:34:52.773Z,20.44
2022-08-17T19:37:51.846Z,20.41
2022-08-17T19:40:52.156Z,20.34
2022-08-17T19:43:30.879Z,20.30
2022-08-17T19:46:15.647Z,20.30
2022-08-17T19:49:03.178Z,20.28
2022-08-17T19:51:54.443Z,20.25
2022-08-17T19:55:08.643Z,20.23
2022-08-17T19:58:02.224Z,20.21
2022-08-17T20:00:31.158Z,20.22
2022-08-17T20:03:05.619Z,20.27
2022-08-17T20:06:08.472Z,20.30
2022-08-17T20:08:48.036Z,20.29
2022-08-17T20:11:19.265Z,20.29
2022-08-17T20:14:12.213Z,20.29
2022-08-17T20:16:38.762Z,20.27
2022-08-17T20:19:10.633Z,20.23
2022-08-17T20:21:50.126Z,20.21
2022-08-17T20:24:40.231Z,20.20
2022-08-17T20:27:17.170Z,20.16
2022-08-17T20:30:02.956Z,20.02
2022-08-17T20:32:53.223Z,19.89
2022-08-17T20:35:20.235Z,19.74
2022-08-17T20:37:53.481Z,19.65
2022-08-17T20:40:25.793Z,19.58
2022-08-17T20:42:52.473Z,19.54
2022-08-17T20:45:21.689Z,19.52
2022-08-17T20:48:18.720Z,19.49
2022-08-17T20:50:43.400Z,19.54
2022-08-17T20:53:13.555Z,19.55
2022-08-17T20:55:52.556Z,19.54
2022-08-17T20:58:21.164Z,19.56
2022-08-17T21:00:56.539Z,19.59
2022-08-17T21:03:23.438Z,19.64
2022-08-17T21:05:57.414Z,19.71
2022-08-17T21:08:29.400Z,19.69
2022-08-17T21:10:57.476Z,19.68
2022-08-17T21:14:10.159Z,19.59
2022-08-17T21:16:46.916Z,19.53
2022-08-17T21:19:30.942Z,19.53
2022-08-17T21:22:07.623Z,19.55
2022-08-17T21:24:48.575Z,19.57
2022-08-17T21:27:54.264Z,19.60
2022-08-17T21:30:29.015Z,19.64
2022-08-17T21:33:17.918Z,19.71
2022-08-17T21:36:14.177Z,19.76
2022-08-17T21:38:57.410Z,19.82
2022-08-17T21:41:34.241Z,19.88
2022-08-17T21:44:19.315Z,19.91
2022-08-17T21:46:49.341Z,19.99
2022-08-17T21:49:19.405Z,20.03
2022-08-17T21:51:49.957Z,20.04
2022-08-17T21:54:38.869Z,20.06
2022-08-17T21:57:08.150Z,20.05
2022-08-17T21:59:38.089Z,20.03
2022-08-17T22:02:06.096Z,20.00
2022-08-17T22:04:37.857Z,19.97
2022-08-17T22:07:07.767Z,19.92
2022-08-17T22:09:46.082Z,19.89
2022-08-17T22:12:17.590Z,19.82
2022-08-17T22:14:52.180Z,19.74
2022-08-17T22:17:26.876Z,19.77
2022-08-17T22:19:56.554Z,19.75
2022-08-17T22:22:57.121Z,19.71
2022-08-17T22:25:25.423Z,19.75
2022-08-17T22:27:56.923Z,19.90
2022-08-17T22:30:32.039Z,20.30
2022-08-17T22:32:59.689Z,20.46
2022-08-17T22:35:34.919Z,20.54
2022-08-17T22:38:19.951Z,20.53
2022-08-17T22:40:51.131Z,20.61
2022-08-17T22:43:24.207Z,20.54
2022-08-17T22:45:55.433Z,20.54
2022-08-17T22:48:27.230Z,20.60
2022-08-17T22:51:12.593Z,20.31
2022-08-17T22:54:05.183Z,20.23
2022-08-17T22:56:50.361Z,20.24
2022-08-17T22:59:41.515Z,20.27
2022-08-17T23:02:24.834Z,20.28
2022-08-17T23:05:15.689Z,20.30
2022-08-17T23:07:44.527Z,20.29
2022-08-17T23:10:12.222Z,20.21
2022-08-17T23:12:39.768Z,20.21
2022-08-17T23:15:14.255Z,20.38
2022-08-17T23:17:42.114Z,20.23
2022-08-17T23:20:12.672Z,20.20
2022-08-17T23:22:51.710Z,19.88
2022-08-17T23:25:29.242Z,19.58
2022-08-17T23:27:57.595Z,19.30
2022-08-17T23:30:30.682Z,19.14
2022-08-17T23:33:05.008Z,18.95
2022-08-17T23:35:40.335Z,18.81
2022-08-17T23:38:10.991Z,18.70
2022-08-17T23:40:37.873Z,18.73
2022-08-17T23:43:23.457Z,18.71
2022-08-17T23:45:53.422Z,18.70
2022-08-17T23:48:32.437Z,18.67
2022-08-17T23:51:14.093Z,18.58
2022-08-17T23:53:47.283Z,18.55
2022-08-17T23:56:14.540Z,18.51
2022-08-17T23:58:42.617Z,18.48
